Time;durP1;ratioP1;P1;durP2;ratioP2;P2;SDS_P1;SDS_P2;PMS_P1;PMS_P2;Temp;Humidity;BMP_temperature;BMP_pressure;BME280_temperature;BME280_humidity;BME280_pressure;Samples;Min_cycle;Max_cycle;Signal;HPM_P1;HPM_P2
2023/09/20 00:01:52;;;;;;;10.63;4.00;;;16.50;99.90;;;;;;4993902;28;20080;-81
2023/09/20 00:04:21;;;;;;;10.20;4.30;;;16.50;99.90;;;;;;4974718;28;20030;-80
2023/09/20 00:06:46;;;;;;;11.55;4.28;;;16.50;99.90;;;;;;4993135;28;20046;-80
2023/09/20 00:09:14;;;;;;;8.07;4.25;;;16.50;99.90;;;;;;5009065;28;20842;-80
2023/09/20 00:11:40;;;;;;;9.93;4.28;;;16.50;99.90;;;;;;4991662;28;20034;-80
2023/09/20 00:14:06;;;;;;;9.93;4.35;;;16.50;99.90;;;;;;4992529;28;20088;-80
2023/09/20 00:16:32;;;;;;;13.20;4.45;;;16.50;99.90;;;;;;4992065;28;20042;-80
2023/09/20 00:18:57;;;;;;;10.13;4.43;;;16.50;99.90;;;;;;4992582;28;20111;-80
2023/09/20 00:21:23;;;;;;;12.15;4.53;;;16.40;99.90;;;;;;4995907;28;20543;-79
2023/09/20 00:23:49;;;;;;;9.80;4.50;;;16.40;99.90;;;;;;4993520;28;20053;-80
2023/09/20 00:26:17;;;;;;;11.75;4.30;;;16.40;99.90;;;;;;4991701;28;20034;-81
2023/09/20 00:28:48;;;;;;;9.80;4.28;;;16.40;99.90;;;;;;4995048;28;20056;-80
2023/09/20 00:31:16;;;;;;;9.75;4.68;;;16.50;99.90;;;;;;4992829;28;20056;-78
2023/09/20 00:33:43;;;;;;;9.90;4.30;;;16.50;99.90;;;;;;4991263;28;20042;-79
2023/09/20 00:36:08;;;;;;;10.38;4.45;;;16.40;99.90;;;;;;4989207;28;20549;-79
2023/09/20 00:38:34;;;;;;;12.85;4.47;;;16.40;99.90;;;;;;4993832;28;20022;-79
2023/09/20 00:41:05;;;;;;;11.45;4.55;;;16.50;99.90;;;;;;4993920;28;20034;-81
2023/09/20 00:43:31;;;;;;;11.63;4.20;;;16.40;99.90;;;;;;4979047;28;20418;-80
2023/09/20 00:45:59;;;;;;;8.13;4.38;;;16.40;99.90;;;;;;4993104;28;20050;-80
2023/09/20 00:48:25;;;;;;;9.15;4.80;;;16.40;99.90;;;;;;4977570;28;20085;-81
2023/09/20 00:50:51;;;;;;;13.75;4.30;;;16.50;99.90;;;;;;4996358;28;20060;-79
2023/09/20 00:53:17;;;;;;;7.55;4.32;;;16.50;99.90;;;;;;4995265;28;20121;-77
2023/09/20 00:55:43;;;;;;;8.52;4.40;;;16.50;99.90;;;;;;4992495;28;20034;-80
2023/09/20 00:58:16;;;;;;;10.82;4.93;;;16.50;99.90;;;;;;4993167;28;20034;-79
2023/09/20 01:00:43;;;;;;;10.75;4.40;;;16.40;99.90;;;;;;4991737;28;20058;-79
2023/09/20 01:03:10;;;;;;;10.45;4.25;;;16.40;99.90;;;;;;4990432;28;20052;-81
2023/09/20 01:05:37;;;;;;;11.85;4.60;;;16.40;99.90;;;;;;4976238;28;20046;-80
2023/09/20 01:08:03;;;;;;;11.32;4.70;;;16.40;99.90;;;;;;4974660;28;20061;-80
2023/09/20 01:10:31;;;;;;;13.90;4.30;;;16.40;99.90;;;;;;4991648;28;20152;-77
2023/09/20 01:13:04;;;;;;;10.15;4.20;;;16.50;99.90;;;;;;4990961;28;20172;-80
2023/09/20 01:15:32;;;;;;;11.98;4.90;;;16.50;99.90;;;;;;4988734;28;20039;-79
2023/09/20 01:17:58;;;;;;;11.68;4.35;;;16.50;99.90;;;;;;4990394;28;20053;-78
2023/09/20 01:20:29;;;;;;;10.07;4.72;;;16.50;99.90;;;;;;4990758;28;20050;-78
2023/09/20 01:22:59;;;;;;;11.82;4.70;;;16.50;99.90;;;;;;4991539;28;20047;-79
2023/09/20 01:25:28;;;;;;;10.63;4.72;;;16.50;99.90;;;;;;4989512;28;20046;-81
2023/09/20 01:27:55;;;;;;;10.32;4.05;;;16.50;99.90;;;;;;4989606;28;20049;-80
2023/09/20 01:30:26;;;;;;;11.75;4.65;;;16.50;99.90;;;;;;4989468;28;20145;-79
2023/09/20 01:32:56;;;;;;;9.63;4.22;;;16.50;99.90;;;;;;4988997;28;20042;-80
2023/09/20 01:35:23;;;;;;;11.38;4.50;;;16.50;99.90;;;;;;4972663;28;20066;-79
2023/09/20 01:37:52;;;;;;;9.35;3.83;;;16.50;99.90;;;;;;4990216;28;20069;-80
2023/09/20 01:40:19;;;;;;;9.40;3.85;;;16.50;99.90;;;;;;4988632;28;20049;-81
2023/09/20 01:42:49;;;;;;;10.48;4.13;;;16.50;99.90;;;;;;4977781;28;20122;-79
2023/09/20 01:45:19;;;;;;;11.02;3.75;;;16.60;99.90;;;;;;4991976;28;20410;-80
2023/09/20 01:47:47;;;;;;;13.85;4.68;;;16.60;99.90;;;;;;4993596;28;20046;-81
2023/09/20 01:50:19;;;;;;;10.10;3.83;;;16.60;99.90;;;;;;4991987;28;20092;-79
2023/09/20 01:52:49;;;;;;;9.95;3.90;;;16.60;99.90;;;;;;4978304;28;20549;-80
2023/09/20 01:55:17;;;;;;;11.65;4.00;;;16.60;99.90;;;;;;4992070;28;20509;-80
2023/09/20 01:57:46;;;;;;;11.02;3.63;;;16.60;99.90;;;;;;4993106;28;20042;-80
2023/09/20 02:00:22;;;;;;;11.48;3.88;;;16.50;99.90;;;;;;4994957;28;20445;-81
2023/09/20 02:03:00;;;;;;;12.55;3.78;;;16.60;99.90;;;;;;4977682;28;20074;-82
2023/09/20 02:05:26;;;;;;;10.40;3.45;;;16.50;99.90;;;;;;4993232;28;20108;-81
2023/09/20 02:07:53;;;;;;;11.75;3.47;;;16.60;99.90;;;;;;4993925;28;20034;-81
2023/09/20 02:10:21;;;;;;;11.27;3.97;;;16.60;99.90;;;;;;4994917;28;20074;-81
2023/09/20 02:12:49;;;;;;;10.95;3.40;;;16.60;99.90;;;;;;4994669;28;20110;-81
2023/09/20 02:15:15;;;;;;;11.90;4.18;;;16.60;99.90;;;;;;4977425;28;20034;-80
2023/09/20 02:17:41;;;;;;;9.45;3.90;;;16.60;99.90;;;;;;4994127;28;20030;-80
2023/09/20 02:20:11;;;;;;;8.48;3.67;;;16.70;99.90;;;;;;4992228;28;20509;-80
2023/09/20 02:22:40;;;;;;;9.48;3.60;;;16.70;99.90;;;;;;4991051;28;20046;-81
2023/09/20 02:25:12;;;;;;;11.02;3.40;;;16.80;99.90;;;;;;5003423;28;20042;-81
2023/09/20 02:27:43;;;;;;;11.98;3.90;;;16.70;99.90;;;;;;4970820;28;20030;-80
2023/09/20 02:30:12;;;;;;;8.93;3.70;;;16.70;99.90;;;;;;5009101;28;20406;-81
2023/09/20 02:32:38;;;;;;;9.85;3.70;;;16.70;99.90;;;;;;4993115;28;20565;-80
2023/09/20 02:35:04;;;;;;;12.43;3.58;;;16.70;99.90;;;;;;4990698;28;20038;-78
2023/09/20 02:37:30;;;;;;;10.30;3.78;;;16.80;99.90;;;;;;4978822;28;20034;-80
2023/09/20 02:39:56;;;;;;;9.32;3.60;;;16.80;99.90;;;;;;4995909;28;20102;-80
2023/09/20 02:42:24;;;;;;;12.30;3.60;;;16.80;99.90;;;;;;4974231;28;20039;-79
2023/09/20 02:44:51;;;;;;;8.07;3.70;;;16.80;99.90;;;;;;4992283;28;20077;-79
2023/09/20 02:47:18;;;;;;;10.88;3.80;;;16.80;99.90;;;;;;4994200;28;20050;-79
2023/09/20 02:49:50;;;;;;;8.80;3.30;;;16.80;99.90;;;;;;4977973;28;20035;-80
2023/09/20 02:52:18;;;;;;;8.30;3.38;;;16.80;99.90;;;;;;4993469;28;20085;-81
2023/09/20 02:54:44;;;;;;;7.25;3.60;;;16.80;99.90;;;;;;4994586;28;20031;-80
2023/09/20 02:57:11;;;;;;;9.07;3.22;;;16.80;99.90;;;;;;4977966;28;20037;-80
2023/09/20 02:59:38;;;;;;;8.00;3.20;;;16.80;99.90;;;;;;4995712;28;20061;-82
2023/09/20 03:02:05;;;;;;;11.90;3.70;;;16.80;99.90;;;;;;4994365;28;20100;-78
2023/09/20 03:04:30;;;;;;;12.57;3.42;;;16.80;99.90;;;;;;4994138;28;20060;-81
2023/09/20 03:06:56;;;;;;;9.65;3.78;;;16.80;99.90;;;;;;4992716;28;20045;-78
2023/09/20 03:09:24;;;;;;;10.05;3.58;;;16.80;99.90;;;;;;4987787;28;20516;-79
2023/09/20 03:11:51;;;;;;;10.80;3.80;;;16.80;99.90;;;;;;4992598;28;20070;-82
2023/09/20 03:14:17;;;;;;;8.80;3.28;;;16.80;99.90;;;;;;4973904;28;20042;-80
2023/09/20 03:16:43;;;;;;;9.05;3.20;;;16.90;99.90;;;;;;4989400;28;20049;-80
2023/09/20 03:19:09;;;;;;;8.35;3.67;;;16.90;99.90;;;;;;4995672;28;20100;-79
2023/09/20 03:21:35;;;;;;;8.13;3.40;;;16.90;99.90;;;;;;4994435;28;20034;-82
2023/09/20 03:24:05;;;;;;;9.50;3.45;;;16.90;99.90;;;;;;4994697;28;20065;-80
2023/09/20 03:26:32;;;;;;;10.82;3.40;;;16.90;99.90;;;;;;4990557;28;20116;-80
2023/09/20 03:28:57;;;;;;;7.43;3.28;;;16.90;99.90;;;;;;4993328;28;20042;-80
2023/09/20 03:31:23;;;;;;;11.77;3.10;;;16.80;99.90;;;;;;4992271;28;20045;-80
2023/09/20 03:33:49;;;;;;;8.40;3.42;;;16.80;99.90;;;;;;4994364;28;20117;-79
2023/09/20 03:36:15;;;;;;;8.70;4.00;;;16.70;99.90;;;;;;4988935;28;20442;-81
2023/09/20 03:38:41;;;;;;;9.05;3.60;;;16.70;99.90;;;;;;4988251;28;20092;-80
2023/09/20 03:41:07;;;;;;;10.75;3.65;;;16.60;99.90;;;;;;4993640;28;20042;-81
2023/09/20 03:43:33;;;;;;;7.80;3.30;;;16.60;99.90;;;;;;4991402;28;20052;-81
2023/09/20 03:45:59;;;;;;;8.93;3.03;;;16.60;99.90;;;;;;4976512;28;21400;-80
2023/09/20 03:48:25;;;;;;;9.45;3.45;;;16.70;99.90;;;;;;4992845;28;20038;-80
2023/09/20 03:50:50;;;;;;;7.15;3.30;;;16.70;99.90;;;;;;4992996;28;20038;-81
2023/09/20 03:53:16;;;;;;;11.13;3.65;;;16.70;99.90;;;;;;4996872;28;20101;-82
2023/09/20 03:55:41;;;;;;;10.07;3.28;;;16.70;99.90;;;;;;4992298;28;20046;-80
2023/09/20 03:58:07;;;;;;;9.98;3.33;;;16.70;99.90;;;;;;4992236;28;20038;-80
2023/09/20 04:00:34;;;;;;;11.52;3.88;;;16.70;99.90;;;;;;4990168;28;20120;-81
2023/09/20 04:03:01;;;;;;;13.80;4.13;;;16.80;99.90;;;;;;4974754;28;20042;-80
2023/09/20 04:05:27;;;;;;;7.95;3.20;;;16.80;99.90;;;;;;4993394;28;20114;-82
2023/09/20 04:07:53;;;;;;;8.85;3.60;;;16.80;99.90;;;;;;4992250;28;20153;-80
2023/09/20 04:10:18;;;;;;;9.95;3.40;;;16.80;99.90;;;;;;4995638;28;20041;-83
2023/09/20 04:12:47;;;;;;;7.32;3.00;;;16.80;99.90;;;;;;4991244;28;20037;-82
2023/09/20 04:15:12;;;;;;;10.05;3.33;;;16.80;99.90;;;;;;4976237;28;20034;-80
2023/09/20 04:17:38;;;;;;;10.77;3.50;;;16.70;99.90;;;;;;4990661;28;20103;-80
2023/09/20 04:20:05;;;;;;;11.60;4.05;;;16.80;99.90;;;;;;4975426;28;20050;-81
2023/09/20 04:22:31;;;;;;;10.38;3.90;;;16.70;99.90;;;;;;4990809;28;20123;-79
2023/09/20 04:24:59;;;;;;;14.02;3.88;;;16.70;99.90;;;;;;4991999;28;20493;-80
2023/09/20 04:27:25;;;;;;;12.15;3.75;;;16.70;99.90;;;;;;4991632;28;20030;-78
2023/09/20 04:29:50;;;;;;;7.38;3.13;;;16.60;99.90;;;;;;4989203;28;20042;-81
2023/09/20 04:32:16;;;;;;;8.70;3.47;;;16.60;99.90;;;;;;4992111;28;20050;-80
2023/09/20 04:34:42;;;;;;;12.48;3.58;;;16.60;99.90;;;;;;4994370;28;20040;-80
2023/09/20 04:37:08;;;;;;;8.90;3.60;;;16.50;99.90;;;;;;4989144;28;20035;-80
2023/09/20 04:39:34;;;;;;;13.43;3.60;;;16.40;99.90;;;;;;4992879;28;20104;-79
2023/09/20 04:41:59;;;;;;;8.02;3.13;;;16.30;99.90;;;;;;4975727;28;20128;-80
2023/09/20 04:44:25;;;;;;;11.50;3.45;;;16.30;99.90;;;;;;4995400;28;20054;-80
2023/09/20 04:46:50;;;;;;;9.23;3.30;;;16.20;99.90;;;;;;4990235;28;20051;-80
2023/09/20 04:49:16;;;;;;;8.43;3.55;;;16.20;99.90;;;;;;4991447;28;20042;-80
2023/09/20 04:51:44;;;;;;;10.93;3.50;;;16.20;99.90;;;;;;4973765;28;20109;-81
2023/09/20 04:54:10;;;;;;;9.30;3.75;;;16.10;99.90;;;;;;5011017;28;20035;-80
2023/09/20 04:56:36;;;;;;;10.30;4.07;;;16.10;99.90;;;;;;4990452;28;20038;-79
2023/09/20 04:59:08;;;;;;;11.80;3.33;;;16.10;99.90;;;;;;4991800;28;20385;-80
2023/09/20 05:01:33;;;;;;;9.30;3.55;;;16.00;99.90;;;;;;4994042;28;20092;-80
2023/09/20 05:03:59;;;;;;;8.52;3.55;;;16.00;99.90;;;;;;4988422;28;20030;-78
2023/09/20 05:06:24;;;;;;;9.10;4.00;;;15.90;99.90;;;;;;4990940;28;20081;-81
2023/09/20 05:08:50;;;;;;;11.68;3.22;;;15.90;99.90;;;;;;4995076;28;20062;-80
2023/09/20 05:11:18;;;;;;;7.07;3.13;;;15.90;99.90;;;;;;4991598;28;20129;-80
2023/09/20 05:13:45;;;;;;;8.65;3.47;;;15.90;99.90;;;;;;4973216;28;20035;-79
2023/09/20 05:16:10;;;;;;;9.57;3.55;;;15.90;99.90;;;;;;4996645;28;20038;-79
2023/09/20 05:18:36;;;;;;;10.13;3.83;;;15.80;99.90;;;;;;4995941;28;20169;-80
2023/09/20 05:21:02;;;;;;;10.63;3.08;;;15.90;99.90;;;;;;4976376;28;20049;-80
2023/09/20 05:23:28;;;;;;;5.95;3.10;;;15.90;99.90;;;;;;4997002;28;20039;-80
2023/09/20 05:25:54;;;;;;;9.32;3.40;;;15.90;99.90;;;;;;4994419;28;20057;-79
2023/09/20 05:28:20;;;;;;;9.38;3.75;;;16.00;99.90;;;;;;4995349;28;20089;-82
2023/09/20 05:30:46;;;;;;;9.38;3.40;;;16.00;99.90;;;;;;4993162;28;20038;-81
2023/09/20 05:33:12;;;;;;;6.88;3.15;;;16.00;99.90;;;;;;4990031;28;20038;-81
2023/09/20 05:35:39;;;;;;;7.80;3.17;;;16.00;99.90;;;;;;4990013;28;20113;-81
2023/09/20 05:38:05;;;;;;;9.00;3.25;;;16.10;99.90;;;;;;4996633;28;21440;-81
2023/09/20 05:40:30;;;;;;;8.13;3.60;;;16.10;99.90;;;;;;4993232;28;20070;-80
2023/09/20 05:42:57;;;;;;;10.07;3.75;;;16.10;99.90;;;;;;4980020;28;20062;-80
2023/09/20 05:45:23;;;;;;;6.40;2.80;;;16.10;99.90;;;;;;4996093;28;20126;-79
2023/09/20 05:47:49;;;;;;;7.75;3.42;;;16.10;99.90;;;;;;4992940;28;20113;-80
2023/09/20 05:50:15;;;;;;;9.07;3.40;;;16.10;99.90;;;;;;4988684;28;20121;-80
2023/09/20 05:52:44;;;;;;;7.32;3.05;;;16.10;99.90;;;;;;4995138;28;20069;-80
2023/09/20 05:55:13;;;;;;;7.53;3.10;;;16.10;99.90;;;;;;4977388;28;20081;-79
2023/09/20 05:57:43;;;;;;;8.98;3.40;;;16.10;99.90;;;;;;4995195;28;20094;-79
2023/09/20 06:00:16;;;;;;;7.20;2.88;;;16.10;99.90;;;;;;4996649;28;20030;-81
2023/09/20 06:02:43;;;;;;;8.23;3.60;;;16.10;99.90;;;;;;4995192;28;20050;-82
2023/09/20 06:05:11;;;;;;;8.70;3.30;;;16.10;99.90;;;;;;4995102;28;20049;-79
2023/09/20 06:07:37;;;;;;;7.53;2.88;;;16.10;99.90;;;;;;4993563;28;20080;-79
2023/09/20 06:10:05;;;;;;;16.67;3.40;;;16.10;99.90;;;;;;4995455;28;20030;-78
2023/09/20 06:12:31;;;;;;;7.03;3.17;;;16.20;99.90;;;;;;4978211;28;20040;-72
2023/09/20 06:14:57;;;;;;;11.70;3.00;;;16.20;99.90;;;;;;4992755;28;20136;-74
2023/09/20 06:17:22;;;;;;;9.07;3.05;;;16.20;99.90;;;;;;4992365;28;20579;-73
2023/09/20 06:19:48;;;;;;;9.07;3.38;;;16.20;99.90;;;;;;4992588;28;20045;-73
2023/09/20 06:22:15;;;;;;;7.93;3.13;;;16.30;99.90;;;;;;4992639;28;20121;-72
2023/09/20 06:24:44;;;;;;;7.03;2.90;;;16.30;99.90;;;;;;4992925;28;20042;-74
2023/09/20 06:27:10;;;;;;;9.13;3.33;;;16.40;99.90;;;;;;4984199;28;20046;-73
2023/09/20 06:29:35;;;;;;;6.65;2.85;;;16.40;99.90;;;;;;4992278;28;20077;-73
2023/09/20 06:32:01;;;;;;;10.10;2.75;;;16.40;99.90;;;;;;4992977;28;20069;-72
2023/09/20 06:34:27;;;;;;;9.40;2.92;;;16.40;99.90;;;;;;4992239;28;20426;-74
2023/09/20 06:36:52;;;;;;;11.77;3.17;;;16.40;99.90;;;;;;4991640;28;20041;-75
2023/09/20 06:39:19;;;;;;;9.20;3.08;;;16.30;99.90;;;;;;4992056;28;20109;-75
2023/09/20 06:41:45;;;;;;;7.80;3.10;;;16.40;99.90;;;;;;4991891;28;20042;-80
2023/09/20 06:44:12;;;;;;;8.77;3.25;;;16.40;99.90;;;;;;4991577;28;20056;-76
2023/09/20 06:46:41;;;;;;;6.18;2.80;;;16.40;99.90;;;;;;4991326;28;20054;-75
2023/09/20 06:49:08;;;;;;;8.27;3.00;;;16.40;99.90;;;;;;4991069;28;20164;-76
2023/09/20 06:51:34;;;;;;;8.43;3.03;;;16.40;99.90;;;;;;4992273;28;20105;-77
2023/09/20 06:53:59;;;;;;;7.18;2.80;;;16.40;99.90;;;;;;4991789;28;20050;-74
2023/09/20 06:56:29;;;;;;;7.68;2.55;;;16.50;99.90;;;;;;4991750;28;20035;-74
2023/09/20 06:58:55;;;;;;;6.80;2.45;;;16.50;99.90;;;;;;4991622;28;20053;-74
2023/09/20 07:01:25;;;;;;;8.48;2.78;;;16.60;99.90;;;;;;4991672;28;20414;-75
2023/09/20 07:03:52;;;;;;;12.05;3.00;;;16.50;99.90;;;;;;4991631;28;20042;-75
2023/09/20 07:06:18;;;;;;;8.07;3.03;;;16.60;99.90;;;;;;4991593;28;20038;-75
2023/09/20 07:08:45;;;;;;;5.85;2.63;;;16.60;99.90;;;;;;4975407;28;20088;-77
2023/09/20 07:11:13;;;;;;;9.13;3.10;;;16.60;99.90;;;;;;4991442;28;20046;-75
2023/09/20 07:13:38;;;;;;;7.45;2.88;;;16.60;99.90;;;;;;4991792;28;20046;-75
2023/09/20 07:16:08;;;;;;;10.48;3.00;;;16.60;99.90;;;;;;4991018;28;20092;-76
2023/09/20 07:18:35;;;;;;;7.43;2.95;;;16.60;99.90;;;;;;4991618;28;20077;-75
2023/09/20 07:21:02;;;;;;;5.97;2.45;;;16.70;99.90;;;;;;4991286;28;20085;-75
2023/09/20 07:23:29;;;;;;;4.97;2.38;;;16.70;99.90;;;;;;4991304;28;20046;-75
2023/09/20 07:25:55;;;;;;;8.23;2.63;;;16.80;99.90;;;;;;4991091;28;20048;-74
2023/09/20 07:28:23;;;;;;;9.02;2.78;;;17.00;99.90;;;;;;4988800;28;20050;-74
2023/09/20 07:30:48;;;;;;;6.53;2.88;;;17.30;99.90;;;;;;4989734;28;20057;-73
2023/09/20 07:33:19;;;;;;;6.28;2.83;;;17.40;99.90;;;;;;4992586;28;20034;-73
2023/09/20 07:35:48;;;;;;;7.05;3.15;;;17.60;99.90;;;;;;4989276;28;20042;-73
2023/09/20 07:38:26;;;;;;;9.32;2.95;;;17.60;99.90;;;;;;4985206;28;20502;-73
2023/09/20 07:40:53;;;;;;;6.75;2.63;;;17.70;99.90;;;;;;4992138;28;20529;-73
2023/09/20 07:43:19;;;;;;;6.00;2.88;;;17.80;99.90;;;;;;4990965;28;20046;-75
2023/09/20 07:45:45;;;;;;;10.85;3.00;;;17.70;99.90;;;;;;4990722;28;20049;-75
2023/09/20 07:48:17;;;;;;;7.10;2.75;;;17.70;99.90;;;;;;4991015;28;20045;-74
2023/09/20 07:50:45;;;;;;;8.10;3.20;;;17.70;99.90;;;;;;4990773;28;20047;-74
2023/09/20 07:53:15;;;;;;;9.52;3.53;;;17.80;99.90;;;;;;4992096;28;20035;-83
2023/09/20 07:55:43;;;;;;;6.00;3.10;;;17.80;99.90;;;;;;4999686;28;20042;-73
2023/09/20 07:58:10;;;;;;;9.32;2.60;;;17.80;99.90;;;;;;4974210;28;20044;-78
2023/09/20 08:00:44;;;;;;;8.25;3.05;;;17.70;99.90;;;;;;4991784;28;20129;-78
2023/09/20 08:03:10;;;;;;;9.90;3.42;;;17.80;99.90;;;;;;4985422;28;20129;-78
2023/09/20 08:05:37;;;;;;;6.20;3.17;;;17.90;99.90;;;;;;4971869;28;20517;-79
2023/09/20 08:08:06;;;;;;;6.68;3.00;;;18.00;99.90;;;;;;5005290;28;20933;-80
2023/09/20 08:10:33;;;;;;;7.97;2.90;;;18.00;99.90;;;;;;4991485;28;20046;-79
2023/09/20 08:12:59;;;;;;;6.68;2.97;;;18.00;99.90;;;;;;4990683;28;20045;-81
2023/09/20 08:15:26;;;;;;;6.60;3.05;;;17.90;99.90;;;;;;4986043;28;20554;-76
2023/09/20 08:20:38;;;;;;;;;;;18.00;99.90;;;;;;4989982;28;20054;-76
2023/09/20 09:01:37;;;;;;;6.75;2.97;;;18.20;99.90;;;;;;4991201;28;20150;-77
2023/09/20 09:04:06;;;;;;;8.77;3.10;;;18.20;99.90;;;;;;4984468;28;20034;-74
2023/09/20 09:06:32;;;;;;;8.38;3.47;;;18.20;99.90;;;;;;4985040;28;20474;-74
2023/09/20 09:08:58;;;;;;;6.40;3.40;;;18.20;99.90;;;;;;4993289;28;20133;-75
2023/09/20 09:11:24;;;;;;;7.40;3.40;;;18.20;99.90;;;;;;4994250;28;20129;-75
2023/09/20 09:13:51;;;;;;;7.43;4.03;;;18.20;99.90;;;;;;4987099;28;20117;-75
2023/09/20 09:16:19;;;;;;;9.23;3.58;;;18.20;99.90;;;;;;4983676;28;20450;-74
2023/09/20 09:18:44;;;;;;;6.88;3.67;;;18.20;99.90;;;;;;4970690;28;20421;-75
2023/09/20 09:21:14;;;;;;;8.05;3.10;;;18.30;99.90;;;;;;4988144;28;20038;-75
2023/09/20 09:23:44;;;;;;;7.35;3.47;;;18.30;99.90;;;;;;4989705;28;20066;-74
2023/09/20 09:26:11;;;;;;;6.88;3.35;;;18.30;99.90;;;;;;4990968;28;20073;-76
2023/09/20 09:28:39;;;;;;;7.07;3.22;;;18.30;99.90;;;;;;4992035;28;20042;-77
2023/09/20 09:31:06;;;;;;;6.63;3.13;;;18.30;99.90;;;;;;4975559;28;20116;-77
2023/09/20 09:33:32;;;;;;;6.90;3.13;;;18.30;99.90;;;;;;4993116;28;20042;-77
2023/09/20 09:35:57;;;;;;;4.88;3.05;;;18.30;99.90;;;;;;4994297;28;20386;-77
2023/09/20 10:09:35;;;;;;;7.60;4.10;;;18.60;99.90;;;;;;5886451;23;20475;-76
2023/09/20 10:12:02;;;;;;;5.97;3.78;;;18.70;99.90;;;;;;4946235;28;20453;-78
2023/09/20 10:14:27;;;;;;;5.85;4.03;;;18.70;99.90;;;;;;4976572;28;20077;-79
2023/09/20 10:16:54;;;;;;;7.82;3.80;;;18.80;99.90;;;;;;4970500;28;20038;-79
2023/09/20 10:19:19;;;;;;;7.20;4.20;;;18.90;99.90;;;;;;4977682;28;20129;-79
2023/09/20 10:22:10;;;;;;;6.38;3.50;;;18.90;99.90;;;;;;4976959;28;20100;-77
2023/09/20 10:24:58;;;;;;;6.32;3.75;;;18.80;99.90;;;;;;4970594;28;20038;-75
2023/09/20 10:27:30;;;;;;;8.52;3.60;;;18.90;99.90;;;;;;4975902;28;20058;-76
2023/09/20 10:30:09;;;;;;;6.43;3.38;;;19.00;99.90;;;;;;4975155;28;20065;-77
2023/09/20 10:33:03;;;;;;;6.68;3.03;;;19.00;99.90;;;;;;4975858;28;20043;-76
2023/09/20 10:35:30;;;;;;;7.80;3.27;;;19.10;99.90;;;;;;4976089;28;20034;-76
2023/09/20 10:38:08;;;;;;;5.00;3.22;;;19.10;99.90;;;;;;4954779;28;20449;-76
2023/09/20 10:40:45;;;;;;;5.50;3.00;;;19.10;99.90;;;;;;4972570;28;20050;-77
2023/09/20 10:43:13;;;;;;;5.78;3.08;;;19.10;99.90;;;;;;4976475;28;20045;-75
2023/09/20 10:48:18;;;;;;;6.60;3.22;;;19.00;99.90;;;;;;5772869;23;20057;-79
2023/09/20 10:50:53;;;;;;;5.10;3.25;;;19.00;99.90;;;;;;4981988;28;20065;-79
2023/09/20 10:53:22;;;;;;;6.40;2.95;;;19.10;99.90;;;;;;4996817;28;20090;-78
2023/09/20 10:55:49;;;;;;;4.22;2.80;;;19.10;99.90;;;;;;4996649;28;20610;-77
2023/09/20 10:58:18;;;;;;;4.88;2.70;;;19.20;99.90;;;;;;4989877;28;20041;-79
2023/09/20 11:00:44;;;;;;;4.72;2.65;;;19.20;99.90;;;;;;4993984;28;20139;-80
2023/09/20 11:03:11;;;;;;;4.68;2.88;;;19.20;99.90;;;;;;4979443;28;20092;-76
2023/09/20 11:05:38;;;;;;;7.10;2.90;;;19.10;99.90;;;;;;4978846;28;20041;-77
2023/09/20 11:08:09;;;;;;;5.18;2.67;;;19.20;99.90;;;;;;4991406;28;20041;-70
2023/09/20 11:10:43;;;;;;;6.32;2.60;;;19.20;99.90;;;;;;4993424;28;20099;-70
2023/09/20 11:13:14;;;;;;;3.50;2.30;;;19.10;99.90;;;;;;4994797;28;20069;-72
2023/09/20 11:15:43;;;;;;;5.88;2.25;;;19.10;99.90;;;;;;4992440;28;20570;-71
2023/09/20 11:18:09;;;;;;;5.85;2.30;;;19.10;99.90;;;;;;4991763;28;20079;-71
2023/09/20 11:20:35;;;;;;;5.85;2.47;;;19.30;99.90;;;;;;4992923;28;20040;-72
2023/09/20 11:23:02;;;;;;;4.80;2.20;;;19.10;99.90;;;;;;5010798;28;20041;-71
2023/09/20 11:25:30;;;;;;;6.82;2.60;;;19.20;99.90;;;;;;4989122;28;20073;-74
2023/09/20 11:27:59;;;;;;;3.92;2.03;;;19.10;99.90;;;;;;4993696;28;20042;-75
2023/09/20 11:30:29;;;;;;;5.63;2.08;;;19.20;99.90;;;;;;4994179;28;20140;-75
2023/09/20 11:32:55;;;;;;;5.53;2.10;;;19.20;99.90;;;;;;4993321;28;20033;-75
2023/09/20 11:35:33;;;;;;;4.95;2.17;;;19.20;99.90;;;;;;4976843;28;20072;-75
2023/09/20 11:38:06;;;;;;;4.53;2.20;;;19.20;99.90;;;;;;4989465;28;20030;-75
2023/09/20 11:40:34;;;;;;;4.85;1.90;;;19.20;99.90;;;;;;5010795;28;20034;-75
2023/09/20 11:43:02;;;;;;;4.90;2.20;;;19.20;99.90;;;;;;5010083;28;20116;-75
2023/09/20 11:45:28;;;;;;;6.30;2.53;;;19.20;99.90;;;;;;4976818;28;20053;-76
2023/09/20 11:47:54;;;;;;;5.40;2.15;;;19.30;99.90;;;;;;4993908;28;20060;-75
2023/09/20 11:50:22;;;;;;;4.88;2.17;;;19.30;99.90;;;;;;4992556;28;20068;-76
2023/09/20 11:52:48;;;;;;;4.35;2.33;;;19.30;99.90;;;;;;4993228;28;20041;-76
2023/09/20 11:55:15;;;;;;;6.10;2.20;;;19.40;99.90;;;;;;4991382;28;20101;-75
2023/09/20 11:57:47;;;;;;;5.57;1.90;;;19.40;99.90;;;;;;5010785;28;20037;-76
2023/09/20 12:00:17;;;;;;;3.50;2.30;;;19.40;99.90;;;;;;4991937;28;20030;-75
2023/09/20 12:02:43;;;;;;;5.47;2.33;;;19.40;99.90;;;;;;4994247;28;20037;-76
2023/09/20 12:05:09;;;;;;;8.85;2.60;;;19.40;99.90;;;;;;5007434;28;20040;-76
2023/09/20 12:07:34;;;;;;;5.13;2.80;;;19.40;99.90;;;;;;4992312;28;20100;-74
2023/09/20 12:10:00;;;;;;;8.20;3.28;;;19.40;99.90;;;;;;4993658;28;20025;-77
2023/09/20 12:12:27;;;;;;;4.53;2.88;;;19.30;99.90;;;;;;4991757;28;20049;-77
2023/09/20 12:14:52;;;;;;;5.40;3.15;;;19.40;99.90;;;;;;4991867;28;20064;-78
2023/09/20 12:17:19;;;;;;;5.80;3.20;;;19.40;99.90;;;;;;4990839;28;20128;-74
2023/09/20 12:19:44;;;;;;;7.22;3.25;;;19.40;99.90;;;;;;4991362;28;20119;-74
2023/09/20 12:22:10;;;;;;;7.20;3.00;;;19.40;99.90;;;;;;4995782;28;20505;-75
2023/09/20 12:24:35;;;;;;;5.10;3.35;;;19.50;99.90;;;;;;5010793;28;20061;-72
2023/09/20 12:27:01;;;;;;;5.85;3.20;;;19.50;99.90;;;;;;4993540;28;20056;-76
2023/09/20 12:29:28;;;;;;;6.30;2.72;;;19.50;99.90;;;;;;4992743;28;20037;-76
2023/09/20 12:31:55;;;;;;;5.70;2.70;;;19.60;99.90;;;;;;5010387;28;20057;-76
2023/09/20 12:34:21;;;;;;;5.05;2.67;;;19.60;99.90;;;;;;4992857;28;20132;-73
2023/09/20 12:36:48;;;;;;;6.63;2.97;;;19.60;99.90;;;;;;5010855;28;20038;-73
2023/09/20 12:39:14;;;;;;;6.50;2.80;;;19.70;99.90;;;;;;4993791;28;20508;-73
2023/09/20 12:41:42;;;;;;;5.13;2.65;;;19.70;99.90;;;;;;4989834;28;20038;-75
2023/09/20 12:44:08;;;;;;;4.88;2.30;;;19.80;99.90;;;;;;4990592;28;20038;-75
2023/09/20 12:46:36;;;;;;;5.82;2.80;;;19.80;99.90;;;;;;4993496;28;20045;-73
2023/09/20 12:49:02;;;;;;;4.93;2.40;;;19.80;99.90;;;;;;4989558;28;20509;-73
2023/09/20 12:51:28;;;;;;;3.47;2.40;;;19.80;99.90;;;;;;4992553;28;20504;-78
2023/09/20 12:53:54;;;;;;;4.93;2.50;;;19.90;99.90;;;;;;4993103;28;20041;-76
2023/09/20 12:56:19;;;;;;;4.85;2.65;;;19.90;99.90;;;;;;4976460;28;20041;-78
2023/09/20 12:58:45;;;;;;;5.68;2.65;;;20.00;99.90;;;;;;4992586;28;20129;-78
2023/09/20 13:01:11;;;;;;;4.32;2.60;;;20.10;99.90;;;;;;4990801;28;20053;-78
2023/09/20 13:03:40;;;;;;;7.53;2.75;;;20.10;99.90;;;;;;4993126;28;20049;-79
2023/09/20 13:06:07;;;;;;;4.55;2.88;;;20.20;99.90;;;;;;4991607;28;20042;-78
2023/09/20 13:08:33;;;;;;;5.00;2.80;;;20.30;99.90;;;;;;4992626;28;20071;-78
2023/09/20 13:10:58;;;;;;;6.30;2.70;;;20.20;99.90;;;;;;4992569;28;20042;-79
2023/09/20 13:13:24;;;;;;;9.27;2.88;;;20.30;99.90;;;;;;4991688;28;20095;-77
2023/09/20 13:15:50;;;;;;;5.18;2.80;;;20.30;99.90;;;;;;4998591;28;20107;-80
2023/09/20 13:18:16;;;;;;;6.55;3.00;;;20.30;99.90;;;;;;4990659;28;20042;-78
2023/09/20 13:20:42;;;;;;;4.57;2.67;;;20.30;99.90;;;;;;4990315;28;20523;-82
2023/09/20 13:23:08;;;;;;;7.25;3.08;;;20.30;99.90;;;;;;4973644;28;20065;-78
2023/09/20 13:25:35;;;;;;;9.18;2.80;;;20.40;99.90;;;;;;4982832;28;20056;-73
2023/09/20 13:28:00;;;;;;;6.47;2.90;;;20.50;99.90;;;;;;4997564;28;20033;-80
2023/09/20 13:30:26;;;;;;;6.60;3.20;;;20.70;99.90;;;;;;4990206;28;20040;-72
2023/09/20 13:32:53;;;;;;;7.10;2.80;;;21.20;99.90;;;;;;4992663;28;20041;-72
2023/09/20 13:35:18;;;;;;;5.57;2.92;;;21.40;99.90;;;;;;4975222;28;20069;-72
2023/09/20 13:37:45;;;;;;;5.70;2.72;;;21.50;99.90;;;;;;5012776;28;20034;-72
2023/09/20 13:40:18;;;;;;;7.28;2.90;;;21.50;99.90;;;;;;4995906;28;20056;-71
2023/09/20 13:42:45;;;;;;;5.00;2.63;;;21.60;99.90;;;;;;4995483;28;20069;-72
2023/09/20 13:45:12;;;;;;;4.55;2.70;;;21.60;99.90;;;;;;4995815;28;20038;-71
2023/09/20 13:47:41;;;;;;;8.23;3.35;;;21.70;99.90;;;;;;5009161;28;20042;-72
2023/09/20 13:50:16;;;;;;;9.13;3.78;;;21.70;99.90;;;;;;4989792;28;20030;-72
2023/09/20 13:52:43;;;;;;;13.00;4.05;;;21.70;99.90;;;;;;4991654;28;20509;-72
2023/09/20 13:55:11;;;;;;;6.22;3.00;;;21.70;99.90;;;;;;4991406;28;20034;-72
2023/09/20 13:57:37;;;;;;;5.47;2.80;;;21.80;99.90;;;;;;5002005;28;20061;-72
2023/09/20 14:00:09;;;;;;;5.00;2.55;;;21.80;99.90;;;;;;5011108;28;20033;-72
2023/09/20 14:02:35;;;;;;;5.07;2.78;;;21.80;99.90;;;;;;4976768;28;20116;-72